Time;durP1;ratioP1;P1;durP2;ratioP2;P2;SDS_P1;SDS_P2;PMS_P1;PMS_P2;Temp;Humidity;BMP_temperature;BMP_pressure;BME280_temperature;BME280_humidity;BME280_pressure;Samples;Min_cycle;Max_cycle;Signal;HPM_P1;HPM_P2
2022/12/29 00:04:44;;;;;;;92.57;11.80;;;;;;;20.97;28.74;102576.03;21064260;28;20044;-61
2022/12/29 00:35:38;;;;;;;67.38;9.65;;;;;;;20.87;28.58;102581.38;21033928;28;20483;-61
2022/12/29 00:45:41;;;;;;;68.45;11.00;;;;;;;20.89;29.39;102579.19;21066770;28;20066;-61
2022/12/29 00:55:42;;;;;;;51.45;10.75;;;;;;;20.86;29.24;102588.03;21036977;28;20109;-61
2022/12/29 01:05:44;;;;;;;71.63;13.18;;;;;;;20.86;30.02;102585.25;21074610;28;20044;-61
2022/12/29 01:15:52;;;;;;;62.35;10.88;;;;;;;20.91;29.90;102588.16;21075266;28;20434;-62
2022/12/29 01:25:55;;;;;;;71.88;9.90;;;;;;;20.96;29.76;102591.06;21025958;28;20056;-62
2022/12/29 01:36:04;;;;;;;54.72;9.82;;;;;;;20.95;29.05;102583.81;20991566;28;20040;-62
2022/12/29 01:46:28;;;;;;;46.47;8.48;;;;;;;20.90;29.46;102566.97;20991029;28;20040;-62
2022/12/29 01:56:29;;;;;;;48.22;8.10;;;;;;;21.04;29.55;102577.63;20988400;28;20037;-61
2022/12/29 02:06:41;;;;;;;54.33;8.63;;;;;;;21.00;29.62;102550.53;20989632;28;20044;-61
2022/12/29 02:17:08;;;;;;;52.25;8.68;;;;;;;21.15;29.76;102569.50;20989705;28;20043;-62
2022/12/29 02:27:41;;;;;;;43.72;7.70;;;;;;;21.14;29.84;102570.59;21000849;28;20052;-62
2022/12/29 02:38:17;;;;;;;36.05;7.00;;;;;;;21.22;29.83;102565.50;21004062;28;20040;-64
2022/12/29 02:48:42;;;;;;;27.63;6.28;;;;;;;21.36;29.83;102576.44;21018233;28;20048;-64
2022/12/29 02:58:44;;;;;;;24.83;5.88;;;;;;;21.27;29.35;102554.50;21023031;28;20451;-64
2022/12/29 03:09:00;;;;;;;26.85;6.07;;;;;;;21.45;29.51;102566.59;21048239;28;20097;-64
2022/12/29 03:19:10;;;;;;;16.02;4.43;;;;;;;21.49;29.08;102573.38;21085589;28;20032;-64
2022/12/29 03:29:14;;;;;;;12.85;4.55;;;;;;;21.53;29.44;102564.28;21085053;28;20048;-64
2022/12/29 03:39:18;;;;;;;14.07;4.50;;;;;;;21.57;29.03;102559.88;21083816;28;20066;-64
2022/12/29 03:49:19;;;;;;;13.93;5.28;;;;;;;21.48;29.16;102554.94;21003889;28;20671;-64
2022/12/29 03:59:21;;;;;;;12.63;4.13;;;;;;;21.56;29.03;102557.34;21030253;28;20172;-65
2022/12/29 04:09:22;;;;;;;11.82;3.13;;;;;;;21.64;28.85;102576.47;21068217;28;20040;-65
2022/12/29 04:19:24;;;;;;;13.23;3.67;;;;;;;21.69;28.71;102568.22;21064096;28;20031;-64
2022/12/29 04:29:25;;;;;;;10.80;3.92;;;;;;;21.67;28.64;102564.84;21072173;28;20036;-64
2022/12/29 04:39:26;;;;;;;11.18;3.55;;;;;;;21.70;29.06;102557.91;21070798;28;20113;-64
2022/12/29 04:49:27;;;;;;;9.48;3.40;;;;;;;21.73;28.72;102547.13;21064822;28;20556;-64
2022/12/29 04:59:29;;;;;;;8.23;3.50;;;;;;;21.68;28.75;102543.41;21066203;28;20468;-63
2022/12/29 05:09:33;;;;;;;23.75;4.35;;;;;;;21.75;29.33;102550.50;21057315;28;20102;-63
2022/12/29 05:19:34;;;;;;;19.30;3.53;;;;;;;21.74;29.62;102534.03;21059869;28;20032;-67
2022/12/29 05:29:35;;;;;;;13.93;3.47;;;;;;;21.83;29.75;102554.84;21066840;28;20044;-63
2022/12/29 05:39:37;;;;;;;11.65;3.38;;;;;;;21.86;29.66;102539.59;21033392;28;20032;-63
2022/12/29 05:49:38;;;;;;;10.23;3.40;;;;;;;21.93;29.81;102546.69;21012888;28;20024;-63
2022/12/29 05:59:39;;;;;;;15.02;3.50;;;;;;;21.94;29.74;102547.53;21085520;28;20051;-63
2022/12/29 06:09:41;;;;;;;8.75;3.08;;;;;;;22.03;29.46;102546.03;21070709;28;20105;-63
2022/12/29 06:19:43;;;;;;;8.75;2.50;;;;;;;22.09;29.79;102547.84;21054322;28;20036;-63
2022/12/29 06:29:49;;;;;;;7.32;2.50;;;;;;;22.08;29.51;102544.19;21088285;28;20044;-63
2022/12/29 06:39:53;;;;;;;5.60;2.60;;;;;;;22.21;29.25;102554.19;21080817;28;20040;-63
2022/12/29 06:49:55;;;;;;;4.55;2.40;;;;;;;22.27;29.08;102563.53;21087160;28;20395;-63
2022/12/29 06:59:56;;;;;;;8.85;2.50;;;;;;;22.33;29.17;102574.50;21057867;28;20036;-63
2022/12/29 07:09:57;;;;;;;5.72;2.25;;;;;;;22.39;29.25;102567.06;20998095;28;20044;-63
2022/12/29 07:19:59;;;;;;;5.57;2.47;;;;;;;22.30;28.97;102551.84;21035132;28;20189;-63
2022/12/29 07:30:00;;;;;;;7.97;2.22;;;;;;;22.43;29.06;102575.78;21054296;28;20610;-62
2022/12/29 07:40:03;;;;;;;6.70;2.20;;;;;;;22.45;29.30;102582.81;21018872;28;20288;-63
2022/12/29 07:50:07;;;;;;;3.85;2.20;;;;;;;22.42;29.50;102568.53;20986093;28;20052;-63
2022/12/29 08:00:09;;;;;;;4.95;2.00;;;;;;;22.49;29.32;102577.56;21046373;28;20504;-63
2022/12/29 08:10:15;;;;;;;6.20;2.28;;;;;;;22.49;29.11;102577.56;21022144;28;20628;-62
2022/12/29 08:20:16;;;;;;;4.18;2.35;;;;;;;22.44;29.34;102567.16;21037793;28;20072;-64
2022/12/29 08:30:17;;;;;;;2.63;1.98;;;;;;;22.43;29.19;102550.69;21018777;28;20217;-63
2022/12/29 08:40:19;;;;;;;3.67;2.33;;;;;;;22.45;29.01;102542.91;21023489;28;20107;-63
2022/12/29 08:50:20;;;;;;;3.03;1.90;;;;;;;22.57;29.11;102552.03;21033319;28;20071;-62
2022/12/29 09:00:25;;;;;;;5.75;3.00;;;;;;;22.59;28.75;102544.28;21035369;28;20068;-62
2022/12/29 09:10:26;;;;;;;4.30;2.13;;;;;;;22.65;28.74;102546.03;21064877;28;20375;-63
2022/12/29 09:20:28;;;;;;;3.00;2.35;;;;;;;22.71;28.71;102555.34;21074278;28;20404;-62
2022/12/29 09:30:29;;;;;;;2.90;2.13;;;;;;;22.74;28.92;102555.69;21070098;28;20044;-62
2022/12/29 09:40:32;;;;;;;4.15;2.20;;;;;;;22.73;28.75;102551.22;21011761;28;20143;-62
2022/12/29 09:50:37;;;;;;;2.72;1.95;;;;;;;22.70;28.77;102548.91;20975411;28;20423;-63
2022/12/29 10:00:49;;;;;;;2.42;2.08;;;;;;;22.79;28.68;102569.72;21027090;28;20068;-63
2022/12/29 10:11:11;;;;;;;3.20;2.00;;;;;;;22.81;28.98;102587.03;21007884;28;20051;-62
2022/12/29 10:21:30;;;;;;;2.67;1.63;;;;;;;22.80;28.98;102585.34;21031112;28;20116;-63
2022/12/29 10:31:42;;;;;;;3.60;2.20;;;;;;;22.81;29.16;102587.03;21014729;28;20043;-63
2022/12/29 10:41:47;;;;;;;2.88;1.80;;;;;;;22.81;28.94;102592.63;21051081;28;20040;-64
2022/12/29 10:51:51;;;;;;;3.13;2.08;;;;;;;22.75;28.86;102592.81;21007962;28;20048;-64
2022/12/29 11:02:05;;;;;;;5.40;2.00;;;;;;;22.76;28.91;102600.91;21076079;28;20077;-64
2022/12/29 11:12:20;;;;;;;2.40;1.80;;;;;;;22.79;28.57;102600.41;21075641;28;20113;-63
2022/12/29 11:22:25;;;;;;;2.97;2.20;;;;;;;22.86;28.65;102591.00;21063871;28;20028;-63
2022/12/29 11:32:31;;;;;;;3.13;2.20;;;;;;;22.90;28.32;102600.59;21077464;28;20036;-64
2022/12/29 11:42:41;;;;;;;5.57;2.33;;;;;;;22.96;28.18;102613.56;21067092;28;20581;-63
2022/12/29 11:52:42;;;;;;;6.05;1.80;;;;;;;22.98;28.06;102611.34;21076994;28;20487;-63
2022/12/29 12:03:04;;;;;;;4.28;2.35;;;;;;;22.97;28.30;102618.88;21078647;28;20352;-63
2022/12/29 12:13:17;;;;;;;3.50;2.20;;;;;;;23.02;27.91;102604.16;21073588;28;20051;-63
2022/12/29 12:23:43;;;;;;;2.63;1.80;;;;;;;22.87;28.17;102595.53;21077397;28;20491;-63
2022/12/29 12:33:50;;;;;;;3.80;1.92;;;;;;;23.00;27.67;102606.34;21072370;28;20086;-64
2022/12/29 12:44:10;;;;;;;3.03;2.35;;;;;;;22.95;27.76;102609.91;21067333;28;20078;-63
2022/12/29 12:54:32;;;;;;;4.13;2.03;;;;;;;22.96;27.70;102603.25;21076248;28;20047;-63
2022/12/29 13:04:54;;;;;;;3.25;2.22;;;;;;;22.93;27.84;102612.13;21073120;28;20075;-63
2022/12/29 13:15:01;;;;;;;2.35;1.98;;;;;;;22.92;28.03;102616.00;21073394;28;20475;-64
2022/12/29 13:25:24;;;;;;;3.03;2.20;;;;;;;22.92;27.68;102643.09;21071695;28;20040;-63
2022/12/29 13:35:46;;;;;;;4.05;2.22;;;;;;;22.91;27.99;102635.78;21059098;28;20078;-64
2022/12/29 13:45:58;;;;;;;4.20;2.40;;;;;;;22.93;27.96;102636.41;21056138;28;20071;-64
2022/12/29 13:56:12;;;;;;;4.55;2.53;;;;;;;22.95;28.09;102636.97;21061795;28;20395;-64
2022/12/29 14:06:20;;;;;;;12.02;2.50;;;;;;;23.00;28.07;102621.19;21054040;28;20055;-64
2022/12/29 14:16:27;;;;;;;10.18;3.38;;;;;;;23.06;28.33;102636.06;21062250;28;20040;-64
2022/12/29 14:26:31;;;;;;;13.13;3.45;;;;;;;23.11;28.53;102641.72;21088196;28;20394;-63
2022/12/29 14:36:59;;;;;;;6.40;2.75;;;;;;;23.14;28.63;102651.53;21090516;28;20032;-63
2022/12/29 14:47:19;;;;;;;10.57;4.10;;;;;;;22.92;28.45;102626.34;21088615;28;20089;-63
2022/12/29 14:57:26;;;;;;;11.50;3.15;;;;;;;23.22;28.29;102665.91;21089043;28;20040;-63
2022/12/29 15:07:30;;;;;;;12.57;3.20;;;;;;;23.05;28.42;102642.75;21087998;28;20044;-63
2022/12/29 15:17:34;;;;;;;8.07;3.20;;;;;;;23.25;28.53;102659.81;21087183;28;20044;-63
2022/12/29 15:27:35;;;;;;;6.32;2.85;;;;;;;23.24;28.27;102657.28;21085176;28;20048;-63
2022/12/29 15:37:37;;;;;;;7.75;3.22;;;;;;;23.27;28.23;102656.75;21063886;28;20040;-65
2022/12/29 15:47:41;;;;;;;4.93;2.72;;;;;;;23.26;28.36;102636.38;21064904;28;20124;-65
2022/12/29 15:57:43;;;;;;;4.10;2.50;;;;;;;23.27;28.23;102628.81;21053622;28;20067;-65
2022/12/29 16:08:02;;;;;;;4.40;2.55;;;;;;;23.21;28.55;102613.94;21047134;28;20056;-65
2022/12/29 16:18:04;;;;;;;6.63;2.63;;;;;;;23.23;28.29;102589.41;21072586;28;20040;-64
2022/12/29 16:28:21;;;;;;;5.32;2.50;;;;;;;23.19;28.45;102571.47;21079491;28;20040;-65
2022/12/29 16:38:30;;;;;;;8.10;2.67;;;;;;;23.04;28.27;102523.75;21068458;28;20040;-65
2022/12/29 16:48:36;;;;;;;5.22;2.83;;;;;;;23.21;28.22;102535.75;21069182;28;20044;-65
2022/12/29 16:58:38;;;;;;;4.03;2.60;;;;;;;23.19;28.17;102515.63;21068732;28;20463;-65
2022/12/29 17:08:41;;;;;;;4.22;2.28;;;;;;;23.13;28.52;102499.88;21065207;28;20105;-65
2022/12/29 17:18:45;;;;;;;7.25;2.97;;;;;;;23.21;28.37;102496.66;21064339;28;20074;-64
2022/12/29 17:28:47;;;;;;;3.90;2.53;;;;;;;23.05;27.91;102458.47;21057954;28;20044;-66
2022/12/29 17:38:48;;;;;;;2.42;2.22;;;;;;;23.19;28.19;102459.78;21071569;28;20040;-64
2022/12/29 17:48:52;;;;;;;4.40;2.42;;;;;;;23.16;27.79;102453.84;21067086;28;20040;-66
2022/12/29 17:58:54;;;;;;;3.72;2.58;;;;;;;23.14;27.93;102437.38;21074951;28;20044;-65
2022/12/29 18:08:56;;;;;;;3.67;2.63;;;;;;;22.98;28.57;102408.41;21079366;28;20044;-65
2022/12/29 18:18:57;;;;;;;3.67;2.47;;;;;;;23.17;28.24;102422.88;21046967;28;20509;-62
2022/12/29 18:29:01;;;;;;;4.07;2.90;;;;;;;23.10;28.53;102399.91;21005053;28;20040;-62
2022/12/29 18:39:03;;;;;;;5.97;2.83;;;;;;;23.24;28.58;102417.94;21005112;28;20639;-62
2022/12/29 18:49:07;;;;;;;3.45;2.80;;;;;;;23.28;28.28;102413.53;21036766;28;20093;-62
2022/12/29 18:59:11;;;;;;;6.88;2.90;;;;;;;23.29;28.38;102398.44;21055036;28;20044;-62
2022/12/29 19:09:12;;;;;;;31.27;5.22;;;;;;;23.36;28.30;102391.78;21056252;28;20041;-62
2022/12/29 19:19:15;;;;;;;12.48;3.17;;;;;;;23.21;28.91;102357.00;21020658;28;20052;-62
2022/12/29 19:29:16;;;;;;;10.70;3.83;;;;;;;23.41;28.33;102375.09;21059296;28;20044;-61
2022/12/29 19:39:18;;;;;;;10.75;4.30;;;;;;;23.41;28.28;102375.09;21037911;28;20121;-61
2022/12/29 19:49:20;;;;;;;15.20;4.32;;;;;;;23.30;28.41;102358.22;21041361;28;20105;-62
2022/12/29 19:59:21;;;;;;;13.05;3.53;;;;;;;23.45;28.50;102390.22;21058309;28;20086;-62
2022/12/29 20:09:22;;;;;;;15.90;3.78;;;;;;;23.47;28.47;102388.03;21057778;28;20036;-62
2022/12/29 20:19:24;;;;;;;11.80;3.22;;;;;;;23.49;28.23;102396.97;21046460;28;20069;-61
2022/12/29 20:29:25;;;;;;;10.18;3.42;;;;;;;23.51;28.70;102397.56;21044255;28;20052;-64
2022/12/29 20:39:27;;;;;;;9.45;3.33;;;;;;;23.50;28.53;102387.47;21027716;28;20072;-64
2022/12/29 20:49:28;;;;;;;8.35;3.42;;;;;;;23.52;28.38;102418.81;21026827;28;20068;-63
2022/12/29 20:59:30;;;;;;;7.85;3.50;;;;;;;23.54;28.52;102411.00;21038447;28;20040;-64
2022/12/29 21:09:31;;;;;;;4.85;2.70;;;;;;;23.52;28.35;102413.22;21037260;28;20048;-62
2022/12/29 21:19:33;;;;;;;5.93;2.90;;;;;;;23.52;28.54;102419.66;21037669;28;20036;-63
2022/12/29 21:29:34;;;;;;;12.23;3.03;;;;;;;23.49;28.74;102410.94;21024997;28;20384;-65
2022/12/29 21:39:36;;;;;;;11.48;2.80;;;;;;;23.45;28.54;102418.16;21045955;28;20039;-63
2022/12/29 21:49:37;;;;;;;17.98;3.70;;;;;;;23.45;28.89;102435.75;21061373;28;20048;-66
2022/12/29 22:20:20;;;;;;;35.83;5.22;;;;;;;23.44;30.94;102455.59;21063429;28;20036;-62
2022/12/29 22:30:22;;;;;;;19.70;4.45;;;;;;;23.44;30.43;102444.41;21054482;28;20069;-62
2022/12/29 22:40:23;;;;;;;23.08;4.25;;;;;;;23.43;30.54;102462.28;21059719;28;20483;-61
2022/12/29 22:50:27;;;;;;;17.40;4.30;;;;;;;23.38;30.53;102457.47;21078728;28;20467;-62
2022/12/29 23:00:28;;;;;;;15.27;3.63;;;;;;;23.41;30.34;102467.28;21075472;28;20028;-61
2022/12/29 23:10:30;;;;;;;16.73;4.50;;;;;;;23.38;30.40;102479.00;21076374;28;20432;-62
2022/12/29 23:20:31;;;;;;;26.25;4.78;;;;;;;23.15;30.56;102453.00;21053722;28;20109;-63
2022/12/29 23:30:35;;;;;;;14.43;4.82;;;;;;;23.25;30.03;102481.06;21059582;28;20102;-63
2022/12/29 23:40:37;;;;;;;14.05;5.03;;;;;;;23.25;29.91;102486.66;21059132;28;20044;-63
2022/12/29 23:50:40;;;;;;;79.15;7.63;;;;;;;23.18;30.40;102491.56;21055131;28;20044;-63
